createdAt,value
2019-02-23T00:01:03.801Z,39.23
2019-02-23T00:04:12.957Z,56.05
2019-02-23T00:07:21.063Z,60.92
2019-02-23T00:10:28.703Z,57.55
2019-02-23T00:13:36.351Z,40.55
2019-02-23T00:16:45.607Z,39.00
2019-02-23T00:19:53.348Z,45.25
2019-02-23T00:23:00.981Z,56.37
2019-02-23T00:26:08.588Z,44.85
2019-02-23T00:29:16.162Z,42.95
2019-02-23T00:32:23.825Z,59.95
2019-02-23T00:35:31.681Z,43.83
2019-02-23T00:38:39.382Z,45.63
2019-02-23T00:41:46.921Z,48.05
2019-02-23T00:44:54.474Z,61.30
2019-02-23T00:48:02.056Z,57.33
2019-02-23T00:51:09.771Z,59.83
2019-02-23T00:54:17.839Z,53.92
2019-02-23T00:57:25.859Z,38.25
2019-02-23T01:00:33.535Z,38.88
2019-02-23T01:03:41.330Z,48.42
2019-02-23T01:06:48.871Z,50.50
2019-02-23T01:09:56.643Z,58.50
2019-02-23T01:13:04.296Z,71.10
2019-02-23T01:16:11.920Z,67.22
2019-02-23T01:19:19.518Z,47.73
2019-02-23T01:22:27.428Z,41.90
2019-02-23T01:25:35.105Z,46.98
2019-02-23T01:28:42.729Z,47.58
2019-02-23T01:31:50.310Z,36.75
2019-02-23T01:34:58.414Z,37.63
2019-02-23T01:38:06.075Z,37.35
2019-02-23T01:41:15.291Z,34.38
2019-02-23T01:44:24.528Z,35.92
2019-02-23T01:47:34.992Z,35.45
2019-02-23T01:50:43.201Z,31.97
2019-02-23T01:53:50.840Z,30.17
2019-02-23T01:56:58.483Z,26.35
2019-02-23T02:00:08.428Z,31.17
2019-02-23T02:03:16.047Z,29.87
2019-02-23T02:06:23.809Z,33.65
2019-02-23T02:09:34.111Z,31.60
2019-02-23T02:12:41.854Z,28.07
2019-02-23T02:15:50.972Z,27.77
2019-02-23T02:18:58.610Z,28.65
2019-02-23T02:22:06.797Z,40.08
2019-02-23T02:25:14.432Z,33.63
2019-02-23T02:28:21.994Z,38.60
2019-02-23T02:31:29.674Z,35.90
2019-02-23T02:34:37.320Z,31.15
2019-02-23T02:37:45.056Z,33.67
2019-02-23T02:40:54.236Z,34.60
2019-02-23T02:44:02.128Z,33.42
2019-02-23T02:47:09.888Z,37.95
2019-02-23T02:50:24.172Z,36.23
2019-02-23T02:53:26.726Z,37.42
2019-02-23T02:56:34.368Z,34.40
2019-02-23T02:59:42.070Z,28.80
2019-02-23T03:02:49.574Z,39.53
2019-02-23T03:05:57.166Z,33.92
2019-02-23T03:09:08.350Z,44.25
2019-02-23T03:12:17.004Z,37.70
2019-02-23T03:15:24.917Z,37.17
2019-02-23T03:18:32.718Z,25.65
2019-02-23T03:21:40.551Z,31.20
2019-02-23T03:24:48.176Z,28.17
2019-02-23T03:27:55.786Z,31.52
2019-02-23T03:31:04.611Z,27.93
2019-02-23T03:34:12.214Z,32.67
2019-02-23T03:37:19.866Z,27.60
2019-02-23T03:40:27.470Z,32.35
2019-02-23T03:43:35.101Z,38.45
2019-02-23T03:46:42.736Z,30.97
2019-02-23T03:49:50.365Z,28.40
2019-02-23T03:52:57.868Z,31.33
2019-02-23T03:56:05.473Z,30.17
2019-02-23T03:59:14.432Z,35.98
2019-02-23T04:02:22.088Z,28.40
2019-02-23T04:05:29.713Z,33.90
2019-02-23T04:08:37.285Z,33.50
2019-02-23T04:11:44.847Z,34.65
2019-02-23T04:14:52.356Z,26.17
2019-02-23T04:18:00.102Z,31.48
2019-02-23T04:21:07.698Z,27.07
2019-02-23T04:24:15.314Z,26.80
2019-02-23T04:27:22.977Z,34.00
2019-02-23T04:30:30.568Z,30.68
2019-02-23T04:33:38.702Z,26.95
2019-02-23T04:36:47.705Z,32.15
2019-02-23T04:39:55.332Z,52.75
2019-02-23T04:43:03.921Z,42.35
2019-02-23T04:46:11.585Z,49.10
2019-02-23T04:49:19.193Z,56.40
2019-02-23T04:52:26.881Z,41.98
2019-02-23T04:55:34.427Z,44.30
2019-02-23T04:58:42.184Z,43.73
2019-02-23T05:01:49.872Z,40.88
2019-02-23T05:04:57.526Z,45.15
2019-02-23T05:08:05.320Z,56.00
2019-02-23T05:11:13.120Z,62.53
2019-02-23T05:14:20.789Z,54.18
2019-02-23T05:17:28.690Z,51.23
2019-02-23T05:20:37.360Z,55.65
2019-02-23T05:23:45.369Z,56.45
2019-02-23T05:26:52.861Z,52.80
2019-02-23T05:30:01.101Z,77.55
2019-02-23T05:33:08.804Z,73.15
2019-02-23T05:36:16.520Z,53.17
2019-02-23T05:39:25.479Z,53.35
2019-02-23T05:42:33.046Z,43.70
2019-02-23T05:45:40.750Z,39.43
2019-02-23T05:48:48.536Z,42.60
2019-02-23T05:51:56.132Z,51.90
2019-02-23T05:55:03.682Z,42.95
2019-02-23T05:58:11.230Z,39.70
2019-02-23T06:01:18.886Z,48.25
2019-02-23T06:04:28.110Z,49.48
2019-02-23T06:07:35.712Z,80.47
2019-02-23T06:10:44.657Z,66.33
2019-02-23T06:13:52.688Z,55.98
2019-02-23T06:17:00.404Z,61.92
2019-02-23T06:20:13.235Z,72.67
2019-02-23T06:23:21.559Z,64.97
2019-02-23T06:26:29.260Z,66.10
2019-02-23T06:29:36.929Z,54.10
2019-02-23T06:32:44.545Z,52.27
2019-02-23T06:35:52.216Z,56.42
2019-02-23T06:38:59.913Z,69.87
2019-02-23T06:42:07.519Z,71.22
2019-02-23T06:45:15.052Z,67.50
2019-02-23T06:48:22.986Z,81.23
2019-02-23T06:51:30.548Z,66.57
2019-02-23T06:54:38.220Z,49.93
2019-02-23T06:57:45.782Z,59.50
2019-02-23T07:00:53.928Z,63.00
2019-02-23T07:04:01.511Z,71.25
2019-02-23T07:07:09.095Z,68.00
2019-02-23T07:10:16.732Z,66.50
2019-02-23T07:13:24.950Z,68.10
2019-02-23T07:16:32.648Z,60.50
2019-02-23T07:19:40.376Z,83.47
2019-02-23T07:22:48.344Z,94.83
2019-02-23T07:25:56.088Z,64.73
2019-02-23T07:29:05.417Z,137.93
2019-02-23T07:32:14.489Z,95.40
2019-02-23T07:35:23.008Z,84.37
2019-02-23T07:38:30.595Z,55.67
2019-02-23T07:41:39.619Z,64.57
2019-02-23T07:44:47.622Z,55.70
2019-02-23T07:47:55.316Z,50.20
2019-02-23T07:51:03.052Z,51.17
2019-02-23T07:54:10.700Z,44.70
2019-02-23T07:57:18.392Z,39.50
2019-02-23T08:00:26.432Z,56.90
2019-02-23T08:03:34.440Z,40.83
2019-02-23T08:06:42.136Z,40.60
2019-02-23T08:09:50.045Z,40.40
2019-02-23T08:12:57.780Z,38.67
2019-02-23T08:16:05.428Z,44.53
2019-02-23T08:19:13.015Z,54.30
2019-02-23T08:22:20.614Z,42.17
2019-02-23T08:25:29.165Z,37.60
2019-02-23T08:28:37.633Z,45.77
2019-02-23T08:31:45.540Z,47.23
2019-02-23T08:34:53.117Z,41.17
2019-02-23T08:38:00.768Z,34.53
2019-02-23T08:41:08.330Z,39.00
2019-02-23T08:44:15.968Z,37.80
2019-02-23T08:47:23.493Z,38.53
2019-02-23T08:50:31.007Z,38.87
2019-02-23T08:53:38.591Z,47.00
2019-02-23T08:56:46.216Z,37.70
2019-02-23T08:59:53.808Z,37.33
2019-02-23T09:03:01.353Z,39.20
2019-02-23T09:06:08.949Z,42.43
2019-02-23T09:09:16.427Z,37.50
2019-02-23T09:12:24.084Z,35.70
2019-02-23T09:15:31.719Z,31.47
2019-02-23T09:18:40.667Z,25.83
2019-02-23T09:21:48.313Z,16.00
2019-02-23T09:24:55.825Z,13.73
2019-02-23T09:28:03.299Z,24.20
2019-02-23T09:31:11.003Z,14.90
2019-02-23T09:34:18.733Z,22.23
2019-02-23T09:37:26.491Z,25.83
2019-02-23T09:40:34.127Z,23.80
2019-02-23T09:43:41.747Z,31.07
2019-02-23T09:46:49.270Z,21.87
2019-02-23T09:49:56.907Z,25.17
2019-02-23T09:53:11.221Z,17.10
2019-02-23T09:56:13.726Z,15.67
2019-02-23T09:59:21.494Z,22.87
2019-02-23T10:02:30.451Z,26.53
2019-02-23T10:05:38.346Z,21.23
2019-02-23T10:08:45.873Z,21.80
2019-02-23T10:11:53.649Z,42.30
2019-02-23T10:15:02.216Z,34.10
2019-02-23T10:18:10.165Z,33.47
2019-02-23T10:21:17.805Z,26.00
2019-02-23T10:24:26.392Z,15.50
2019-02-23T10:27:34.095Z,23.37
2019-02-23T10:30:41.922Z,23.23
2019-02-23T10:33:49.596Z,20.80
2019-02-23T10:36:57.415Z,25.67
2019-02-23T10:40:05.051Z,23.80
2019-02-23T10:43:12.633Z,21.93
2019-02-23T10:46:20.099Z,18.60
2019-02-23T10:49:29.199Z,25.20
2019-02-23T10:52:36.808Z,19.60
2019-02-23T10:55:44.403Z,20.13
2019-02-23T10:58:51.999Z,24.17
2019-02-23T11:02:01.875Z,25.20
2019-02-23T11:05:10.871Z,26.40
2019-02-23T11:08:18.435Z,15.30
2019-02-23T11:11:26.038Z,16.53
2019-02-23T11:14:33.876Z,24.83
2019-02-23T11:17:41.534Z,28.57
2019-02-23T11:20:49.043Z,21.37
2019-02-23T11:23:56.551Z,22.90
2019-02-23T11:27:04.229Z,23.20
2019-02-23T11:30:13.061Z,22.37
2019-02-23T11:33:20.611Z,21.37
2019-02-23T11:36:28.234Z,23.27
2019-02-23T11:39:37.314Z,28.83
2019-02-23T11:42:44.913Z,23.53
2019-02-23T11:45:52.563Z,21.95
2019-02-23T11:49:00.284Z,30.70
2019-02-23T11:52:09.485Z,24.83
2019-02-23T11:55:17.093Z,31.87
2019-02-23T11:58:24.772Z,27.30
2019-02-23T12:01:32.338Z,30.30
2019-02-23T12:04:40.942Z,29.17
2019-02-23T12:07:48.739Z,25.23
2019-02-23T12:10:56.235Z,26.10
2019-02-23T12:14:03.875Z,42.00
2019-02-23T12:17:11.389Z,36.17
2019-02-23T12:20:19.854Z,30.53
2019-02-23T12:23:27.477Z,39.73
2019-02-23T12:26:35.296Z,27.50
2019-02-23T12:29:42.974Z,31.33
2019-02-23T12:32:50.589Z,18.33
2019-02-23T12:35:58.127Z,18.63
2019-02-23T12:39:06.560Z,26.00
2019-02-23T12:42:15.711Z,17.27
2019-02-23T12:45:23.325Z,19.07
2019-02-23T12:48:31.020Z,30.03
2019-02-23T12:51:38.607Z,22.70
2019-02-23T12:54:46.212Z,20.23
2019-02-23T12:57:53.871Z,24.47
2019-02-23T13:01:01.452Z,13.53
2019-02-23T13:04:09.455Z,15.80
2019-02-23T13:07:16.973Z,19.20
2019-02-23T13:10:24.555Z,15.57
2019-02-23T13:14:28.285Z,17.20
2019-02-23T13:18:07.293Z,35.23
2019-02-23T13:21:58.483Z,22.30
2019-02-23T13:25:55.473Z,22.70
2019-02-23T13:29:21.987Z,28.30
2019-02-23T13:33:11.111Z,25.03
2019-02-23T13:36:45.165Z,23.30
2019-02-23T13:40:19.964Z,25.70
2019-02-23T13:44:12.678Z,47.83
2019-02-23T13:47:52.046Z,34.80
2019-02-23T13:51:35.182Z,28.57
2019-02-23T13:55:12.490Z,25.47
2019-02-23T13:58:47.915Z,24.77
2019-02-23T14:02:41.621Z,24.10
2019-02-23T14:05:59.027Z,17.93
2019-02-23T14:09:42.016Z,20.83
2019-02-23T14:13:17.804Z,19.80
2019-02-23T14:16:52.302Z,31.60
2019-02-23T14:20:17.945Z,26.97
2019-02-23T14:24:21.289Z,28.60
2019-02-23T14:27:52.295Z,13.23
2019-02-23T14:31:32.560Z,24.40
2019-02-23T14:35:13.053Z,27.10
2019-02-23T14:39:07.569Z,26.37
2019-02-23T14:42:25.435Z,29.77
2019-02-23T14:46:04.203Z,29.23
2019-02-23T14:49:52.539Z,20.20
2019-02-23T14:53:32.143Z,25.87
2019-02-23T14:57:28.414Z,29.90
2019-02-23T15:01:13.367Z,30.80
2019-02-23T15:05:07.005Z,42.30
2019-02-23T15:08:46.477Z,32.80
2019-02-23T15:12:56.039Z,50.40
2019-02-23T15:16:43.849Z,36.70
2019-02-23T15:20:34.930Z,54.40
2019-02-23T15:24:23.818Z,47.80
2019-02-23T15:27:57.211Z,49.50
2019-02-23T15:31:43.415Z,64.73
2019-02-23T15:35:16.131Z,56.30
2019-02-23T15:38:57.759Z,58.00
2019-02-23T15:42:46.931Z,63.50
2019-02-23T15:46:20.012Z,47.30
2019-02-23T15:49:31.440Z,42.20
2019-02-23T15:52:39.096Z,83.30
2019-02-23T15:55:48.062Z,75.57
2019-02-23T15:58:55.903Z,73.73
2019-02-23T16:02:04.214Z,38.43
2019-02-23T16:05:11.903Z,59.53
2019-02-23T16:08:19.636Z,85.80
2019-02-23T16:11:27.291Z,108.43
2019-02-23T16:14:34.958Z,92.03
2019-02-23T16:17:42.599Z,58.03
2019-02-23T16:20:50.221Z,63.63
2019-02-23T16:23:57.749Z,77.93
2019-02-23T16:27:05.277Z,70.00
2019-02-23T16:30:14.252Z,64.70
2019-02-23T16:33:22.093Z,86.57
2019-02-23T16:36:29.720Z,60.07
2019-02-23T16:39:40.473Z,44.27
2019-02-23T16:42:47.569Z,42.37
2019-02-23T16:45:55.681Z,55.50
2019-02-23T16:49:04.104Z,54.75
2019-02-23T16:52:11.793Z,51.47
2019-02-23T16:55:19.450Z,43.43
2019-02-23T16:58:28.539Z,57.80
2019-02-23T17:01:36.319Z,49.00
2019-02-23T17:04:52.965Z,44.20
2019-02-23T17:07:54.191Z,50.50
2019-02-23T17:11:01.853Z,50.20
2019-02-23T17:14:10.670Z,60.90
2019-02-23T17:17:18.194Z,66.97
2019-02-23T17:20:27.296Z,91.67
2019-02-23T17:23:34.925Z,102.40
2019-02-23T17:26:42.660Z,147.13
2019-02-23T17:29:50.340Z,141.10
2019-02-23T17:33:00.391Z,76.10
2019-02-23T17:36:07.944Z,49.03
2019-02-23T17:39:15.561Z,64.00
2019-02-23T17:42:28.531Z,68.43
2019-02-23T17:45:32.351Z,61.97
2019-02-23T17:48:39.968Z,66.73
2019-02-23T17:51:47.520Z,70.70
2019-02-23T17:54:55.080Z,71.80
2019-02-23T17:58:02.631Z,71.10
2019-02-23T18:01:10.333Z,92.53
2019-02-23T18:04:18.209Z,227.70
2019-02-23T18:07:25.820Z,122.30
2019-02-23T18:10:33.563Z,85.20
2019-02-23T18:13:41.263Z,68.87
2019-02-23T18:16:48.896Z,74.43
2019-02-23T18:19:56.636Z,77.00
2019-02-23T18:23:04.225Z,79.87
2019-02-23T18:26:11.875Z,65.10
2019-02-23T18:29:19.491Z,67.30
2019-02-23T18:32:27.169Z,70.47
2019-02-23T18:35:34.745Z,69.20
2019-02-23T18:38:42.443Z,65.70
2019-02-23T18:41:50.429Z,71.90
2019-02-23T18:44:58.213Z,160.17
2019-02-23T18:48:05.930Z,180.23
2019-02-23T18:51:13.590Z,196.80
2019-02-23T18:54:21.236Z,263.53
2019-02-23T18:57:35.750Z,264.30
2019-02-23T19:00:43.360Z,197.07
2019-02-23T19:03:51.003Z,86.70
2019-02-23T19:06:58.658Z,132.33
2019-02-23T19:10:07.363Z,121.33
2019-02-23T19:13:15.100Z,157.23
2019-02-23T19:16:23.416Z,99.60
2019-02-23T19:19:31.120Z,228.12
2019-02-23T19:22:38.679Z,207.60
2019-02-23T19:25:46.238Z,177.10
2019-02-23T19:28:53.900Z,184.63
2019-02-23T19:32:01.648Z,156.63
2019-02-23T19:35:09.339Z,184.83
2019-02-23T19:38:16.942Z,177.70
2019-02-23T19:41:24.534Z,161.50
2019-02-23T19:44:32.468Z,227.63
2019-02-23T19:47:40.821Z,114.77
2019-02-23T19:50:52.123Z,111.90
2019-02-23T19:53:59.720Z,133.43
2019-02-23T19:57:07.390Z,123.37
2019-02-23T20:00:15.075Z,144.17
2019-02-23T20:03:23.716Z,143.43
2019-02-23T20:06:31.376Z,181.27
2019-02-23T20:09:38.966Z,160.33
2019-02-23T20:12:46.720Z,173.50
2019-02-23T20:15:54.366Z,148.93
2019-02-23T20:19:02.082Z,152.37
2019-02-23T20:22:09.819Z,178.73
2019-02-23T20:25:17.440Z,235.40
2019-02-23T20:28:25.073Z,196.53
2019-02-23T20:31:32.693Z,172.87
2019-02-23T20:34:40.277Z,191.03
2019-02-23T20:37:47.860Z,290.93
2019-02-23T20:40:56.486Z,296.67
2019-02-23T20:44:04.134Z,360.23
2019-02-23T20:47:12.709Z,243.50
2019-02-23T20:50:21.987Z,213.07
2019-02-23T20:53:29.782Z,281.07
2019-02-23T20:56:37.454Z,374.47
2019-02-23T20:59:45.030Z,366.30
2019-02-23T21:02:52.752Z,390.20
2019-02-23T21:06:00.368Z,305.00
2019-02-23T21:09:08.136Z,302.10
2019-02-23T21:12:17.278Z,288.93
2019-02-23T21:15:24.954Z,304.17
2019-02-23T21:18:32.704Z,209.23
2019-02-23T21:21:40.394Z,203.83
2019-02-23T21:24:50.218Z,209.23
2019-02-23T21:27:58.054Z,352.90
2019-02-23T21:31:05.768Z,275.10
2019-02-23T21:34:13.448Z,252.03
2019-02-23T21:37:22.262Z,276.50
2019-02-23T21:40:29.919Z,284.70
2019-02-23T21:43:37.548Z,235.13
2019-02-23T21:46:45.291Z,191.97
2019-02-23T21:49:52.980Z,188.83
2019-02-23T21:53:00.592Z,227.40
2019-02-23T21:56:08.181Z,237.20
2019-02-23T21:59:15.978Z,205.00
2019-02-23T22:02:23.551Z,160.07
2019-02-23T22:05:31.444Z,182.80
2019-02-23T22:08:39.046Z,174.03
2019-02-23T22:11:46.532Z,376.87
2019-02-23T22:14:54.210Z,417.63
2019-02-23T22:18:01.830Z,293.60
2019-02-23T22:21:09.457Z,482.70
2019-02-23T22:24:17.033Z,378.73
2019-02-23T22:27:31.116Z,514.70
2019-02-23T22:30:33.819Z,540.53
2019-02-23T22:33:41.686Z,432.63
2019-02-23T22:36:49.303Z,390.03
2019-02-23T22:39:56.789Z,566.27
2019-02-23T22:43:04.341Z,495.17
2019-02-23T22:46:11.909Z,503.47
2019-02-23T22:49:19.471Z,533.90
2019-02-23T22:52:27.092Z,546.40
2019-02-23T22:55:34.759Z,590.07
2019-02-23T22:58:42.396Z,542.30
2019-02-23T23:01:49.978Z,394.87
2019-02-23T23:04:57.839Z,351.93
2019-02-23T23:08:05.408Z,309.50
2019-02-23T23:11:13.006Z,303.00
2019-02-23T23:14:20.462Z,334.50
2019-02-23T23:17:28.058Z,339.37
2019-02-23T23:20:35.595Z,276.60
2019-02-23T23:23:43.381Z,384.83
2019-02-23T23:26:51.896Z,930.80
2019-02-23T23:29:59.504Z,427.53
2019-02-23T23:33:07.386Z,630.50
2019-02-23T23:36:14.933Z,670.13
2019-02-23T23:39:22.509Z,853.50
2019-02-23T23:42:30.060Z,730.43
2019-02-23T23:45:37.589Z,557.63
2019-02-23T23:48:45.109Z,494.87
2019-02-23T23:51:53.794Z,465.87
2019-02-23T23:55:01.366Z,539.60
2019-02-23T23:58:08.933Z,343.07
